createdAt,value
2022-09-10T00:02:14.435Z,55.00
2022-09-10T00:05:19.303Z,53.60
2022-09-10T00:08:23.119Z,52.00
2022-09-10T00:11:28.561Z,54.25
2022-09-10T00:14:31.945Z,60.60
2022-09-10T00:17:36.917Z,57.25
2022-09-10T00:20:45.341Z,56.75
2022-09-10T00:23:49.100Z,49.00
2022-09-10T00:26:52.378Z,62.00
2022-09-10T00:29:56.038Z,53.40
2022-09-10T00:33:00.463Z,52.40
2022-09-10T00:36:15.223Z,56.40
2022-09-10T00:39:20.397Z,55.40
2022-09-10T00:42:23.679Z,61.40
2022-09-10T00:45:29.495Z,57.80
2022-09-10T00:48:34.067Z,52.80
2022-09-10T00:51:39.051Z,56.25
2022-09-10T00:54:44.322Z,56.00
2022-09-10T00:57:50.615Z,51.00
2022-09-10T01:00:57.443Z,52.00
2022-09-10T01:04:01.875Z,51.60
2022-09-10T01:07:09.883Z,53.00
2022-09-10T01:10:18.500Z,58.00
2022-09-10T01:13:34.584Z,52.00
2022-09-10T01:16:49.406Z,53.40
2022-09-10T01:20:18.727Z,63.00
2022-09-10T01:24:00.861Z,57.00
2022-09-10T01:27:30.759Z,52.00
2022-09-10T01:30:41.882Z,57.75
2022-09-10T01:33:53.713Z,56.50
2022-09-10T01:37:05.020Z,53.00
2022-09-10T01:40:09.610Z,57.00
2022-09-10T01:43:14.114Z,53.25
2022-09-10T01:46:41.745Z,56.00
2022-09-10T01:50:00.475Z,52.00
2022-09-10T01:53:21.369Z,56.20
2022-09-10T01:56:40.584Z,51.33
2022-09-10T01:59:55.090Z,55.25
2022-09-10T02:03:08.126Z,55.00
2022-09-10T02:06:16.915Z,63.20
2022-09-10T02:09:21.118Z,54.00
2022-09-10T02:12:24.884Z,61.40
2022-09-10T02:16:01.021Z,57.80
2022-09-10T02:19:11.712Z,52.50
2022-09-10T02:22:16.358Z,57.00
2022-09-10T02:25:20.221Z,50.80
2022-09-10T02:28:23.495Z,50.00
2022-09-10T02:31:27.215Z,52.00
2022-09-10T02:34:33.041Z,53.00
2022-09-10T02:37:37.507Z,50.80
2022-09-10T02:40:41.056Z,57.50
2022-09-10T02:43:48.648Z,53.80
2022-09-10T02:46:52.118Z,49.60
2022-09-10T02:49:56.698Z,53.20
2022-09-10T02:53:01.110Z,62.50
2022-09-10T02:56:05.160Z,56.60
2022-09-10T02:59:08.438Z,52.80
2022-09-10T03:02:12.506Z,56.00
2022-09-10T03:05:17.375Z,58.40
2022-09-10T03:08:23.470Z,51.00
2022-09-10T03:11:27.694Z,55.60
2022-09-10T03:14:31.531Z,52.00
2022-09-10T03:17:35.199Z,56.00
2022-09-10T03:20:41.830Z,56.00
2022-09-10T03:23:47.887Z,63.60
2022-09-10T03:26:57.035Z,51.00
2022-09-10T03:30:00.874Z,56.50
2022-09-10T03:33:07.245Z,56.00
2022-09-10T03:36:14.270Z,56.60
2022-09-10T03:39:19.559Z,61.20
2022-09-10T03:42:22.731Z,53.40
2022-09-10T03:45:26.341Z,56.75
2022-09-10T03:48:30.552Z,59.25
2022-09-10T03:51:35.410Z,57.00
2022-09-10T03:54:39.986Z,57.00
2022-09-10T03:57:43.529Z,61.20
2022-09-10T04:00:47.453Z,58.80
2022-09-10T04:03:50.735Z,59.00
2022-09-10T04:06:55.478Z,57.80
2022-09-10T04:09:58.781Z,58.80
2022-09-10T04:13:02.092Z,59.00
2022-09-10T04:16:06.880Z,56.00
2022-09-10T04:19:11.333Z,56.25
2022-09-10T04:22:15.981Z,63.25
2022-09-10T04:25:20.356Z,58.50
2022-09-10T04:28:24.230Z,56.00
2022-09-10T04:31:28.151Z,58.00
2022-09-10T04:34:37.829Z,58.00
2022-09-10T04:37:44.733Z,59.00
2022-09-10T04:40:48.228Z,55.40
2022-09-10T04:43:51.996Z,59.40
2022-09-10T04:46:56.100Z,56.60
2022-09-10T04:49:59.760Z,55.00
2022-09-10T04:53:04.640Z,61.00
2022-09-10T04:56:08.872Z,53.80
2022-09-10T04:59:14.519Z,54.20
2022-09-10T05:02:20.202Z,49.00
2022-09-10T05:05:23.475Z,52.00
2022-09-10T05:08:28.710Z,51.00
2022-09-10T05:11:34.227Z,46.50
2022-09-10T05:14:38.082Z,53.00
2022-09-10T05:17:44.162Z,48.60
2022-09-10T05:20:47.485Z,52.00
2022-09-10T05:23:52.120Z,49.00
2022-09-10T05:26:55.448Z,47.50
2022-09-10T05:29:59.277Z,50.75
2022-09-10T05:33:02.821Z,49.60
2022-09-10T05:36:10.868Z,49.40
2022-09-10T05:39:17.026Z,47.20
2022-09-10T05:42:22.019Z,49.40
2022-09-10T05:45:25.894Z,45.25
2022-09-10T05:48:29.687Z,50.60
2022-09-10T05:51:33.360Z,50.00
2022-09-10T05:54:41.646Z,43.00
2022-09-10T05:57:45.786Z,51.60
2022-09-10T06:00:54.867Z,46.00
2022-09-10T06:03:58.303Z,47.00
2022-09-10T06:07:02.447Z,45.80
2022-09-10T06:10:08.211Z,47.40
2022-09-10T06:13:15.867Z,45.60
2022-09-10T06:16:22.127Z,48.50
2022-09-10T06:19:26.109Z,33.20
2022-09-10T06:22:32.099Z,50.40
2022-09-10T06:25:36.722Z,46.75
2022-09-10T06:28:41.318Z,51.40
2022-09-10T06:31:45.016Z,49.20
2022-09-10T06:34:48.687Z,51.00
2022-09-10T06:37:52.068Z,52.60
2022-09-10T06:40:59.310Z,51.00
2022-09-10T06:44:04.427Z,49.00
2022-09-10T06:48:01.147Z,49.00
2022-09-10T06:50:51.696Z,51.00
2022-09-10T06:53:58.231Z,50.00
2022-09-10T06:57:04.577Z,47.60
2022-09-10T07:00:10.331Z,49.40
2022-09-10T07:03:16.011Z,44.67
2022-09-10T07:06:19.784Z,50.00
2022-09-10T07:09:26.862Z,53.00
2022-09-10T07:12:39.637Z,54.40
2022-09-10T07:15:47.596Z,47.20
2022-09-10T07:18:54.569Z,50.40
2022-09-10T07:21:59.774Z,53.00
2022-09-10T07:25:03.270Z,51.80
2022-09-10T07:28:19.292Z,49.40
2022-09-10T07:31:27.418Z,47.80
2022-09-10T07:34:31.338Z,61.00
2022-09-10T07:37:35.196Z,51.40
2022-09-10T07:40:40.239Z,50.20
2022-09-10T07:43:45.428Z,49.25
2022-09-10T07:46:50.000Z,53.20
2022-09-10T07:49:53.921Z,47.50
2022-09-10T07:52:57.435Z,47.50
2022-09-10T07:56:02.959Z,49.40
2022-09-10T07:59:11.987Z,50.60
2022-09-10T08:02:32.368Z,55.00
2022-09-10T08:05:39.618Z,50.75
2022-09-10T08:08:44.613Z,52.00
2022-09-10T08:11:49.953Z,53.50
2022-09-10T08:14:57.859Z,47.00
2022-09-10T08:18:03.021Z,44.80
2022-09-10T08:21:09.332Z,44.00
2022-09-10T08:24:14.801Z,43.80
2022-09-10T08:27:21.610Z,41.00
2022-09-10T08:30:26.446Z,46.00
2022-09-10T08:33:31.562Z,42.00
2022-09-10T08:36:34.982Z,46.00
2022-09-10T08:39:38.336Z,44.80
2022-09-10T08:42:48.275Z,50.00
2022-09-10T08:45:58.207Z,46.00
2022-09-10T08:49:10.061Z,43.75
2022-09-10T08:52:22.106Z,42.40
2022-09-10T08:55:31.638Z,41.50
2022-09-10T08:58:43.547Z,31.60
2022-09-10T09:01:52.498Z,40.20
2022-09-10T09:05:00.940Z,38.40
2022-09-10T09:08:06.318Z,41.40
2022-09-10T09:11:20.648Z,33.25
2022-09-10T09:14:39.842Z,40.67
2022-09-10T09:18:10.940Z,42.50
2022-09-10T09:21:18.937Z,39.40
2022-09-10T09:24:25.627Z,38.60
2022-09-10T09:27:37.906Z,37.50
2022-09-10T09:30:49.495Z,37.40
2022-09-10T09:34:01.873Z,28.75
2022-09-10T09:37:13.076Z,35.60
2022-09-10T09:40:30.593Z,39.00
2022-09-10T09:43:49.848Z,24.00
2022-09-10T09:46:54.241Z,32.75
2022-09-10T09:50:00.657Z,36.80
2022-09-10T09:53:03.937Z,33.40
2022-09-10T09:56:16.515Z,35.00
2022-09-10T09:59:28.642Z,34.25
2022-09-10T10:02:31.979Z,31.60
2022-09-10T10:05:36.628Z,35.40
2022-09-10T10:08:42.252Z,34.00
2022-09-10T10:11:51.814Z,32.60
2022-09-10T10:14:55.088Z,32.00
2022-09-10T10:17:58.408Z,29.75
2022-09-10T10:21:17.527Z,36.00
2022-09-10T10:24:31.550Z,33.25
2022-09-10T10:27:38.187Z,31.40
2022-09-10T10:30:42.639Z,27.50
2022-09-10T10:33:56.573Z,29.20
2022-09-10T10:37:08.966Z,19.75
2022-09-10T10:40:23.437Z,29.40
2022-09-10T10:43:42.306Z,26.00
2022-09-10T10:46:54.494Z,29.00
2022-09-10T10:50:09.080Z,34.00
2022-09-10T10:53:25.658Z,46.50
2022-09-10T10:56:33.928Z,23.40
2022-09-10T10:59:53.165Z,51.00
2022-09-10T11:03:08.800Z,35.80
2022-09-10T11:06:16.402Z,27.40
2022-09-10T11:09:26.253Z,30.00
2022-09-10T11:12:33.909Z,19.80
2022-09-10T11:15:43.303Z,31.50
2022-09-10T11:18:52.106Z,33.20
2022-09-10T11:21:59.933Z,23.50
2022-09-10T11:25:17.198Z,36.00
2022-09-10T11:28:26.932Z,33.20
2022-09-10T11:31:34.047Z,31.60
2022-09-10T11:34:50.038Z,32.40
2022-09-10T11:38:02.510Z,23.80
2022-09-10T11:41:13.334Z,24.60
2022-09-10T11:44:38.929Z,36.00
2022-09-10T11:47:46.885Z,21.40
2022-09-10T11:50:56.143Z,21.20
2022-09-10T11:53:59.624Z,25.00
2022-09-10T11:57:11.909Z,24.00
2022-09-10T12:00:17.244Z,21.60
2022-09-10T12:03:59.362Z,20.40
2022-09-10T12:07:11.646Z,20.00
2022-09-10T12:10:24.337Z,26.60
2022-09-10T12:13:29.319Z,21.00
2022-09-10T12:16:38.512Z,19.75
2022-09-10T12:19:47.192Z,21.40
2022-09-10T12:22:55.534Z,23.50
2022-09-10T12:26:01.373Z,22.50
2022-09-10T12:29:07.173Z,27.60
2022-09-10T12:32:30.381Z,24.00
2022-09-10T12:35:46.897Z,21.00
2022-09-10T12:39:17.495Z,29.80
2022-09-10T12:42:32.380Z,21.00
2022-09-10T12:46:06.159Z,20.25
2022-09-10T12:49:14.803Z,24.20
2022-09-10T12:52:29.808Z,19.60
2022-09-10T12:55:45.232Z,22.50
2022-09-10T12:59:15.453Z,25.60
2022-09-10T13:02:30.974Z,22.00
2022-09-10T13:05:50.424Z,20.25
2022-09-10T13:08:53.991Z,32.50
2022-09-10T13:12:04.069Z,25.20
2022-09-10T13:15:17.285Z,31.00
2022-09-10T13:18:28.052Z,27.40
2022-09-10T13:21:54.874Z,26.25
2022-09-10T13:25:04.603Z,15.80
2022-09-10T13:28:43.769Z,24.00
2022-09-10T13:31:49.264Z,29.00
2022-09-10T13:35:10.747Z,41.60
2022-09-10T13:38:47.628Z,18.00
2022-09-10T13:42:15.384Z,27.00
2022-09-10T13:45:27.194Z,28.25
2022-09-10T13:48:41.724Z,30.60
2022-09-10T13:51:52.356Z,35.00
2022-09-10T13:54:59.073Z,26.60
2022-09-10T13:58:09.959Z,28.40
2022-09-10T14:01:13.185Z,31.00
2022-09-10T14:04:24.618Z,30.50
2022-09-10T14:07:29.665Z,35.00
2022-09-10T14:10:49.552Z,27.00
2022-09-10T14:13:58.254Z,25.75
2022-09-10T14:17:08.293Z,33.60
2022-09-10T14:20:19.493Z,36.00
2022-09-10T14:23:24.294Z,30.00
2022-09-10T14:26:30.752Z,33.75
2022-09-10T14:29:34.033Z,38.40
2022-09-10T14:32:37.531Z,27.50
2022-09-10T14:35:43.149Z,32.00
2022-09-10T14:38:57.693Z,24.60
2022-09-10T14:42:12.405Z,47.00
2022-09-10T14:45:42.018Z,32.20
2022-09-10T14:49:04.861Z,26.00
2022-09-10T14:52:09.029Z,31.00
2022-09-10T14:55:14.510Z,49.00
2022-09-10T14:58:18.158Z,41.20
2022-09-10T15:01:21.389Z,33.60
2022-09-10T15:04:27.018Z,26.50
2022-09-10T15:07:30.692Z,38.20
2022-09-10T15:10:35.650Z,27.50
2022-09-10T15:13:42.243Z,39.00
2022-09-10T15:16:45.541Z,32.00
2022-09-10T15:19:48.804Z,35.00
2022-09-10T15:22:52.347Z,34.60
2022-09-10T15:26:00.463Z,35.00
2022-09-10T15:29:03.743Z,48.60
2022-09-10T15:32:07.125Z,36.50
2022-09-10T15:35:10.791Z,36.00
2022-09-10T15:38:14.435Z,27.20
2022-09-10T15:41:19.364Z,39.60
2022-09-10T15:44:23.542Z,37.50
2022-09-10T15:47:27.451Z,15.80
2022-09-10T15:50:31.721Z,34.00
2022-09-10T15:53:35.332Z,32.40
2022-09-10T15:56:40.657Z,42.25
2022-09-10T15:59:44.165Z,36.60
2022-09-10T16:02:52.041Z,31.20
2022-09-10T16:06:01.262Z,34.80
2022-09-10T16:09:07.756Z,27.00
2022-09-10T16:12:12.898Z,33.60
2022-09-10T16:15:16.455Z,32.50
2022-09-10T16:18:19.845Z,36.40
2022-09-10T16:21:26.255Z,32.00
2022-09-10T16:24:29.561Z,34.00
2022-09-10T16:27:34.144Z,33.80
2022-09-10T16:30:37.346Z,36.25
2022-09-10T16:33:41.037Z,30.60
2022-09-10T16:36:44.711Z,33.80
2022-09-10T16:39:48.004Z,30.80
2022-09-10T16:42:53.464Z,37.00
2022-09-10T16:45:56.798Z,29.60
2022-09-10T16:49:00.532Z,32.00
2022-09-10T16:52:05.475Z,30.00
2022-09-10T16:55:09.306Z,34.00
2022-09-10T16:58:14.783Z,32.00
2022-09-10T17:01:18.916Z,38.50
2022-09-10T17:04:29.033Z,29.20
2022-09-10T17:07:32.702Z,39.40
2022-09-10T17:10:36.062Z,37.00
2022-09-10T17:13:40.955Z,35.00
2022-09-10T17:16:45.169Z,32.80
2022-09-10T17:19:48.453Z,34.00
2022-09-10T17:22:51.689Z,41.20
2022-09-10T17:25:54.962Z,45.00
2022-09-10T17:29:02.157Z,32.20
2022-09-10T17:32:05.819Z,39.50
2022-09-10T17:35:10.918Z,40.00
2022-09-10T17:38:14.384Z,36.00
2022-09-10T17:41:17.808Z,38.25
2022-09-10T17:44:22.582Z,36.40
2022-09-10T17:47:26.923Z,32.80
2022-09-10T17:50:30.380Z,38.50
2022-09-10T17:53:34.039Z,35.75
2022-09-10T17:56:38.331Z,28.40
2022-09-10T17:59:45.432Z,38.20
2022-09-10T18:02:48.775Z,24.40
2022-09-10T18:05:52.028Z,28.20
2022-09-10T18:08:58.942Z,29.00
2022-09-10T18:12:02.775Z,28.00
2022-09-10T18:15:08.536Z,25.80
2022-09-10T18:18:11.798Z,29.20
2022-09-10T18:21:17.029Z,27.00
2022-09-10T18:24:22.769Z,29.40
2022-09-10T18:27:26.449Z,33.00
2022-09-10T18:30:31.393Z,26.20
2022-09-10T18:33:38.399Z,32.60
2022-09-10T18:36:42.138Z,27.00
2022-09-10T18:39:45.966Z,28.50
2022-09-10T18:42:49.273Z,23.60
2022-09-10T18:45:53.879Z,28.00
2022-09-10T18:48:58.075Z,27.00
2022-09-10T18:52:01.386Z,28.00
2022-09-10T18:55:05.105Z,29.00
2022-09-10T18:58:08.386Z,28.60
2022-09-10T19:01:14.533Z,31.00
2022-09-10T19:04:20.220Z,26.00
2022-09-10T19:07:23.519Z,27.00
2022-09-10T19:10:26.708Z,30.60
2022-09-10T19:13:30.086Z,26.25
2022-09-10T19:16:37.026Z,26.80
2022-09-10T19:19:40.679Z,26.00
2022-09-10T19:22:44.241Z,27.00
2022-09-10T19:25:55.643Z,34.25
2022-09-10T19:29:01.114Z,28.50
2022-09-10T19:32:06.679Z,32.00
2022-09-10T19:35:11.458Z,27.00
2022-09-10T19:38:36.258Z,28.40
2022-09-10T19:41:40.226Z,23.40
2022-09-10T19:44:43.623Z,33.50
2022-09-10T19:47:48.351Z,27.40
2022-09-10T19:50:51.849Z,28.80
2022-09-10T19:53:55.529Z,25.40
2022-09-10T19:56:58.848Z,36.33
2022-09-10T20:00:02.190Z,30.50
2022-09-10T20:03:16.536Z,33.00
2022-09-10T20:06:22.182Z,37.80
2022-09-10T20:09:25.417Z,25.75
2022-09-10T20:12:28.710Z,25.80
2022-09-10T20:15:32.249Z,18.00
2022-09-10T20:18:38.301Z,30.50
2022-09-10T20:21:42.477Z,34.20
2022-09-10T20:24:45.863Z,44.60
2022-09-10T20:27:49.211Z,21.00
2022-09-10T20:30:53.033Z,42.00
2022-09-10T20:34:00.107Z,27.60
2022-09-10T20:37:04.692Z,31.40
2022-09-10T20:40:11.120Z,26.60
2022-09-10T20:43:14.427Z,30.80
2022-09-10T20:46:18.761Z,18.00
2022-09-10T20:49:23.363Z,33.60
2022-09-10T20:52:26.635Z,38.80
2022-09-10T20:55:29.906Z,52.80
2022-09-10T20:58:34.761Z,34.00
2022-09-10T21:01:40.224Z,38.00
2022-09-10T21:04:44.971Z,53.20
2022-09-10T21:07:50.622Z,52.00
2022-09-10T21:10:54.256Z,48.50
2022-09-10T21:13:58.887Z,33.67
2022-09-10T21:17:03.613Z,41.60
2022-09-10T21:20:09.693Z,37.00
2022-09-10T21:23:13.017Z,35.20
2022-09-10T21:26:17.832Z,26.80
2022-09-10T21:29:23.169Z,43.25
2022-09-10T21:32:26.890Z,24.20
2022-09-10T21:35:31.861Z,27.60
2022-09-10T21:38:36.362Z,28.00
2022-09-10T21:41:41.723Z,55.40
2022-09-10T21:44:44.974Z,38.80
2022-09-10T21:47:48.429Z,30.60
2022-09-10T21:51:00.434Z,37.00
2022-09-10T21:54:04.883Z,42.25
2022-09-10T21:57:11.013Z,28.80
2022-09-10T22:00:16.350Z,36.00
2022-09-10T22:03:19.606Z,37.25
2022-09-10T22:06:26.092Z,35.50
2022-09-10T22:09:29.318Z,42.40
2022-09-10T22:12:32.567Z,38.00
2022-09-10T22:15:39.943Z,31.80
2022-09-10T22:18:43.483Z,30.75
2022-09-10T22:21:48.667Z,36.00
2022-09-10T22:24:53.111Z,27.00
2022-09-10T22:27:58.397Z,35.00
2022-09-10T22:31:10.225Z,35.00
2022-09-10T22:34:15.650Z,35.00
2022-09-10T22:37:20.265Z,35.00
2022-09-10T22:40:24.503Z,33.20
2022-09-10T22:43:30.359Z,46.00
2022-09-10T22:46:34.588Z,33.80
2022-09-10T22:49:38.059Z,34.00
2022-09-10T22:52:43.706Z,40.00
2022-09-10T22:55:47.135Z,38.40
2022-09-10T22:58:51.797Z,34.25
2022-09-10T23:01:55.497Z,32.80
2022-09-10T23:05:00.029Z,32.40
2022-09-10T23:08:04.903Z,46.25
2022-09-10T23:11:10.024Z,38.60
2022-09-10T23:14:15.663Z,38.20
2022-09-10T23:17:22.544Z,37.80
2022-09-10T23:20:26.028Z,35.60
2022-09-10T23:23:30.838Z,21.00
2022-09-10T23:26:34.287Z,42.60
2022-09-10T23:29:38.395Z,38.00
2022-09-10T23:32:41.851Z,41.80
2022-09-10T23:35:50.927Z,36.20
2022-09-10T23:38:55.727Z,26.50
2022-09-10T23:41:59.297Z,36.60
2022-09-10T23:45:02.562Z,30.00
2022-09-10T23:48:05.804Z,28.50
2022-09-10T23:51:11.499Z,37.50
2022-09-10T23:54:17.190Z,38.00
2022-09-10T23:57:20.495Z,36.25
